createdAt,value
2019-01-02T00:01:46.175Z,99.99
2019-01-02T00:02:46.411Z,99.99
2019-01-02T00:04:50.578Z,99.99
2019-01-02T00:05:50.813Z,99.99
2019-01-02T00:07:54.958Z,99.99
2019-01-02T00:08:55.193Z,99.99
2019-01-02T00:10:59.354Z,99.99
2019-01-02T00:11:59.594Z,99.99
2019-01-02T00:14:03.766Z,99.99
2019-01-02T00:15:03.996Z,99.99
2019-01-02T00:17:08.145Z,99.99
2019-01-02T00:18:08.378Z,99.99
2019-01-02T00:20:12.547Z,99.99
2019-01-02T00:21:12.783Z,99.99
2019-01-02T00:23:16.930Z,99.99
2019-01-02T00:24:17.165Z,99.99
2019-01-02T00:26:21.332Z,99.99
2019-01-02T00:27:21.564Z,99.99
2019-01-02T00:29:25.744Z,99.99
2019-01-02T00:30:25.984Z,99.99
2019-01-02T00:32:30.129Z,99.99
2019-01-02T00:33:30.364Z,99.99
2019-01-02T00:35:23.465Z,99.99
2019-01-02T00:36:23.701Z,99.99
2019-01-02T00:38:27.849Z,99.99
2019-01-02T00:39:28.086Z,99.99
2019-01-02T00:41:32.255Z,99.99
2019-01-02T00:42:32.493Z,99.99
2019-01-02T00:44:36.637Z,99.99
2019-01-02T00:45:36.873Z,99.99
2019-01-02T00:47:41.041Z,99.99
2019-01-02T00:48:41.276Z,99.99
2019-01-02T00:50:45.440Z,99.99
2019-01-02T00:51:45.673Z,99.99
2019-01-02T00:53:49.821Z,99.99
2019-01-02T00:54:50.058Z,99.99
2019-01-02T00:56:54.231Z,99.99
2019-01-02T00:57:54.462Z,99.99
2019-01-02T00:59:58.616Z,99.99
2019-01-02T01:00:58.850Z,99.99
2019-01-02T01:03:03.021Z,99.99
2019-01-02T01:04:03.254Z,99.99
2019-01-02T01:06:07.433Z,99.99
2019-01-02T01:07:07.654Z,99.99
2019-01-02T01:09:11.805Z,99.99
2019-01-02T01:10:12.041Z,99.99
2019-01-02T01:12:16.211Z,99.99
2019-01-02T01:13:16.448Z,99.99
2019-01-02T01:15:09.517Z,99.99
2019-01-02T01:16:09.743Z,99.99
2019-01-02T01:18:13.915Z,99.99
2019-01-02T01:19:14.148Z,99.99
2019-01-02T01:21:18.321Z,99.99
2019-01-02T01:22:18.555Z,99.99
2019-01-02T01:24:22.703Z,99.99
2019-01-02T01:25:22.940Z,99.99
2019-01-02T01:27:27.117Z,99.99
2019-01-02T01:28:27.350Z,99.99
2019-01-02T01:30:31.504Z,99.99
2019-01-02T01:31:31.735Z,99.99
2019-01-02T01:33:35.903Z,99.99
2019-01-02T01:34:36.138Z,99.99
2019-01-02T01:36:40.286Z,99.99
2019-01-02T01:37:40.520Z,99.99
2019-01-02T01:39:44.684Z,99.99
2019-01-02T01:40:44.921Z,99.99
2019-01-02T01:42:49.088Z,99.99
2019-01-02T01:43:49.324Z,99.99
2019-01-02T01:45:53.469Z,99.99
2019-01-02T01:46:53.704Z,99.99
2019-01-02T01:48:57.867Z,99.99
2019-01-02T01:49:58.099Z,99.99
2019-01-02T01:52:02.253Z,99.99
2019-01-02T01:53:02.486Z,99.99
2019-01-02T01:54:55.584Z,99.99
2019-01-02T01:55:55.821Z,99.99
2019-01-02T01:57:59.990Z,99.99
2019-01-02T01:59:00.224Z,99.99
2019-01-02T02:01:04.372Z,99.99
2019-01-02T02:02:04.605Z,99.99
2019-01-02T02:04:08.772Z,99.99
2019-01-02T02:05:09.008Z,99.99
2019-01-02T02:07:13.153Z,99.99
2019-01-02T02:08:13.390Z,99.99
2019-01-02T02:10:17.556Z,99.99
2019-01-02T02:11:17.791Z,99.99
2019-01-02T02:13:21.957Z,99.99
2019-01-02T02:14:22.193Z,99.99
2019-01-02T02:16:26.340Z,99.99
2019-01-02T02:17:26.575Z,99.99
2019-01-02T02:19:30.742Z,99.99
2019-01-02T02:20:30.976Z,99.99
2019-01-02T02:22:35.124Z,99.99
2019-01-02T02:23:35.362Z,99.99
2019-01-02T02:25:28.460Z,99.99
2019-01-02T02:26:28.695Z,99.99
2019-01-02T02:28:32.859Z,99.99
2019-01-02T02:29:33.092Z,99.99
2019-01-02T02:31:37.237Z,99.99
2019-01-02T02:32:37.475Z,99.99
2019-01-02T02:34:41.643Z,99.99
2019-01-02T02:35:41.882Z,99.99
2019-01-02T02:37:46.021Z,99.99
2019-01-02T02:38:46.255Z,99.99
2019-01-02T02:40:50.425Z,99.99
2019-01-02T02:41:50.663Z,99.99
2019-01-02T02:43:54.833Z,99.99
2019-01-02T02:44:55.065Z,99.99
2019-01-02T02:46:59.214Z,99.99
2019-01-02T02:47:59.449Z,99.99
2019-01-02T02:50:03.616Z,99.99
2019-01-02T02:51:03.856Z,99.99
2019-01-02T02:53:08.003Z,99.99
2019-01-02T02:54:08.235Z,99.99
2019-01-02T02:56:12.399Z,99.99
2019-01-02T02:57:12.639Z,99.99
2019-01-02T02:59:16.806Z,99.99
2019-01-02T03:00:17.042Z,99.99
2019-01-02T03:02:21.226Z,99.99
2019-01-02T03:03:21.421Z,99.99
2019-01-02T03:05:14.514Z,99.99
2019-01-02T03:06:14.747Z,99.99
2019-01-02T03:08:18.889Z,99.99
2019-01-02T03:09:19.123Z,99.99
2019-01-02T03:11:23.288Z,99.99
2019-01-02T03:12:23.525Z,99.99
2019-01-02T03:14:27.689Z,99.99
2019-01-02T03:15:27.930Z,99.99
2019-01-02T03:17:32.076Z,99.99
2019-01-02T03:18:32.310Z,99.99
2019-01-02T03:20:36.478Z,99.99
2019-01-02T03:21:36.711Z,99.99
2019-01-02T03:23:40.856Z,99.99
2019-01-02T03:24:41.085Z,99.99
2019-01-02T03:26:45.252Z,99.99
2019-01-02T03:27:45.496Z,99.99
2019-01-02T03:29:49.661Z,99.99
2019-01-02T03:30:49.894Z,99.99
2019-01-02T03:32:54.043Z,99.99
2019-01-02T03:33:54.277Z,99.99
2019-01-02T03:35:58.444Z,99.99
2019-01-02T03:36:58.680Z,99.99
2019-01-02T03:39:02.858Z,99.99
2019-01-02T03:40:03.095Z,99.99
2019-01-02T03:42:07.241Z,99.99
2019-01-02T03:43:07.476Z,99.99
2019-01-02T03:45:00.572Z,99.99
2019-01-02T03:46:00.805Z,99.99
2019-01-02T03:48:04.953Z,99.99
2019-01-02T03:49:05.186Z,99.99
2019-01-02T03:51:09.357Z,99.99
2019-01-02T03:52:09.590Z,99.99
2019-01-02T03:54:13.757Z,99.99
2019-01-02T03:55:13.993Z,99.99
2019-01-02T03:57:18.142Z,99.99
2019-01-02T03:58:18.378Z,99.99
2019-01-02T04:00:22.546Z,99.99
2019-01-02T04:01:22.777Z,99.99
2019-01-02T04:03:26.922Z,99.99
2019-01-02T04:04:27.160Z,99.99
2019-01-02T04:06:31.325Z,99.99
2019-01-02T04:07:31.561Z,99.99
2019-01-02T04:09:35.732Z,99.99
2019-01-02T04:10:35.969Z,99.99
2019-01-02T04:12:40.108Z,99.99
2019-01-02T04:13:40.346Z,99.99
2019-01-02T04:15:33.440Z,99.99
2019-01-02T04:16:33.680Z,99.99
2019-01-02T04:18:37.825Z,99.99
2019-01-02T04:19:38.058Z,99.99
2019-01-02T04:21:42.226Z,99.99
2019-01-02T04:22:42.460Z,99.99
2019-01-02T04:24:46.626Z,99.99
2019-01-02T04:25:46.862Z,99.99
2019-01-02T04:27:51.006Z,99.99
2019-01-02T04:28:51.239Z,99.99
2019-01-02T04:30:55.403Z,99.99
2019-01-02T04:31:55.635Z,99.99
2019-01-02T04:33:59.780Z,99.99
2019-01-02T04:35:00.014Z,99.99
2019-01-02T04:37:04.180Z,99.99
2019-01-02T04:38:04.414Z,99.99
2019-01-02T04:40:08.559Z,99.99
2019-01-02T04:41:08.793Z,99.99
2019-01-02T04:43:12.961Z,99.99
2019-01-02T04:44:13.195Z,99.99
2019-01-02T04:46:17.363Z,99.99
2019-01-02T04:47:17.597Z,99.99
2019-01-02T04:49:21.740Z,99.99
2019-01-02T04:50:21.979Z,99.99
2019-01-02T04:52:26.150Z,99.99
2019-01-02T04:53:26.384Z,99.99
2019-01-02T04:55:19.489Z,99.99
2019-01-02T04:56:19.773Z,99.99
2019-01-02T04:58:23.867Z,99.99
2019-01-02T04:59:24.101Z,99.99
2019-01-02T05:01:28.269Z,99.99
2019-01-02T05:02:28.503Z,99.99
2019-01-02T05:04:32.651Z,99.99
2019-01-02T05:05:32.885Z,99.99
2019-01-02T05:07:37.052Z,99.99
2019-01-02T05:08:37.284Z,99.99
2019-01-02T05:10:41.468Z,99.99
2019-01-02T05:11:41.701Z,99.99
2019-01-02T05:13:45.844Z,99.99
2019-01-02T05:14:46.078Z,99.99
2019-01-02T05:16:50.246Z,99.99
2019-01-02T05:17:50.478Z,99.99
2019-01-02T05:19:54.624Z,99.99
2019-01-02T05:20:54.855Z,99.99
2019-01-02T05:22:59.023Z,99.99
2019-01-02T05:23:59.256Z,99.99
2019-01-02T05:26:03.429Z,99.99
2019-01-02T05:27:03.661Z,99.99
2019-01-02T05:29:07.811Z,99.99
2019-01-02T05:30:08.044Z,99.99
2019-01-02T05:32:12.210Z,99.99
2019-01-02T05:33:12.440Z,99.99
2019-01-02T05:35:05.517Z,99.99
2019-01-02T05:36:05.751Z,99.99
2019-01-02T05:38:09.914Z,99.99
2019-01-02T05:39:10.145Z,99.99
2019-01-02T05:41:14.311Z,99.99
2019-01-02T05:42:14.540Z,99.99
2019-01-02T05:44:18.689Z,99.99
2019-01-02T05:45:18.923Z,99.99
2019-01-02T05:47:23.090Z,99.99
2019-01-02T05:48:23.324Z,99.99
2019-01-02T05:50:27.469Z,99.99
2019-01-02T05:51:27.699Z,99.99
2019-01-02T05:53:31.870Z,99.99
2019-01-02T05:54:32.106Z,99.99
2019-01-02T05:56:36.284Z,99.99
2019-01-02T05:57:36.519Z,99.99
2019-01-02T05:59:40.663Z,99.99
2019-01-02T06:00:40.899Z,99.99
2019-01-02T06:02:45.063Z,99.99
2019-01-02T06:03:45.298Z,99.99
2019-01-02T06:05:38.374Z,99.99
2019-01-02T06:06:38.608Z,99.99
2019-01-02T06:08:42.775Z,99.99
2019-01-02T06:09:43.007Z,99.99
2019-01-02T06:11:47.175Z,99.99
2019-01-02T06:12:47.411Z,99.99
2019-01-02T06:14:51.575Z,99.99
2019-01-02T06:15:51.809Z,99.99
2019-01-02T06:17:55.987Z,99.99
2019-01-02T06:18:56.210Z,99.99
2019-01-02T06:21:00.355Z,99.99
2019-01-02T06:22:00.588Z,99.99
2019-01-02T06:24:04.757Z,99.99
2019-01-02T06:25:04.995Z,99.99
2019-01-02T06:27:09.142Z,99.99
2019-01-02T06:28:09.376Z,99.99
2019-01-02T06:30:13.551Z,99.99
2019-01-02T06:31:13.778Z,99.99
2019-01-02T06:33:17.942Z,99.99
2019-01-02T06:34:18.177Z,99.99
2019-01-02T06:36:22.325Z,99.99
2019-01-02T06:37:22.560Z,99.99
2019-01-02T06:39:26.725Z,99.99
2019-01-02T06:40:26.959Z,99.99
2019-01-02T06:42:31.107Z,99.99
2019-01-02T06:43:31.344Z,99.99
2019-01-02T06:45:24.435Z,99.99
2019-01-02T06:46:24.669Z,99.99
2019-01-02T06:48:28.831Z,99.99
2019-01-02T06:49:29.064Z,99.99
2019-01-02T06:51:33.215Z,99.99
2019-01-02T06:52:33.454Z,99.99
2019-01-02T06:54:37.628Z,99.99
2019-01-02T06:55:37.861Z,99.99
2019-01-02T06:57:42.010Z,99.99
2019-01-02T06:58:42.245Z,99.99
2019-01-02T07:00:46.414Z,99.99
2019-01-02T07:01:46.654Z,99.99
2019-01-02T07:03:50.825Z,99.99
2019-01-02T07:04:51.053Z,99.99
2019-01-02T07:06:55.199Z,99.99
2019-01-02T07:07:55.434Z,99.99
2019-01-02T07:09:59.594Z,99.99
2019-01-02T07:10:59.839Z,99.99
2019-01-02T07:13:03.984Z,99.99
2019-01-02T07:14:04.221Z,99.99
2019-01-02T07:16:08.388Z,99.99
2019-01-02T07:17:08.623Z,99.99
2019-01-02T07:19:12.797Z,99.99
2019-01-02T07:20:13.028Z,99.99
2019-01-02T07:22:17.177Z,99.99
2019-01-02T07:23:17.414Z,99.99
2019-01-02T07:25:10.510Z,99.99
2019-01-02T07:26:10.743Z,99.99
2019-01-02T07:28:14.892Z,99.99
2019-01-02T07:29:15.127Z,99.99
2019-01-02T07:31:19.297Z,99.99
2019-01-02T07:32:24.583Z,99.99
2019-01-02T07:34:23.704Z,99.99
2019-01-02T07:35:23.939Z,99.99
2019-01-02T07:37:28.100Z,99.99
2019-01-02T07:38:28.319Z,99.99
2019-01-02T07:40:32.485Z,99.99
2019-01-02T07:41:32.718Z,99.99
2019-01-02T07:43:36.871Z,99.99
2019-01-02T07:44:37.102Z,99.99
2019-01-02T07:46:41.270Z,99.99
2019-01-02T07:47:41.505Z,99.99
2019-01-02T07:49:45.669Z,99.99
2019-01-02T07:50:45.906Z,99.99
2019-01-02T07:52:50.055Z,99.99
2019-01-02T07:53:50.286Z,99.99
2019-01-02T07:55:54.490Z,99.99
2019-01-02T07:56:54.719Z,99.99
2019-01-02T07:58:58.873Z,99.99
2019-01-02T07:59:59.109Z,99.99
2019-01-02T08:02:03.301Z,99.99
2019-01-02T08:03:03.531Z,99.99
2019-01-02T08:04:56.623Z,99.99
2019-01-02T08:05:56.855Z,99.99
2019-01-02T08:08:00.997Z,99.99
2019-01-02T08:09:01.228Z,99.99
2019-01-02T08:11:05.395Z,99.99
2019-01-02T08:12:05.628Z,99.99
2019-01-02T08:14:09.776Z,99.99
2019-01-02T08:15:10.011Z,99.99
2019-01-02T08:17:14.174Z,99.99
2019-01-02T08:18:14.409Z,99.99
2019-01-02T08:20:18.572Z,99.99
2019-01-02T08:21:18.799Z,99.99
2019-01-02T08:23:22.942Z,99.99
2019-01-02T08:24:23.182Z,99.99
2019-01-02T08:26:27.346Z,99.99
2019-01-02T08:27:27.584Z,99.99
2019-01-02T08:29:31.728Z,99.99
2019-01-02T08:30:31.963Z,99.99
2019-01-02T08:32:36.133Z,99.99
2019-01-02T08:33:36.366Z,99.99
2019-01-02T08:35:29.458Z,99.99
2019-01-02T08:36:29.696Z,99.99
2019-01-02T08:38:33.836Z,99.99
2019-01-02T08:39:34.069Z,99.99
2019-01-02T08:41:38.237Z,99.99
2019-01-02T08:42:38.469Z,99.99
2019-01-02T08:44:42.621Z,99.99
2019-01-02T08:45:42.851Z,99.99
2019-01-02T08:47:47.018Z,99.99
2019-01-02T08:48:47.255Z,99.99
2019-01-02T08:50:51.424Z,99.99
2019-01-02T08:51:51.661Z,99.99
2019-01-02T08:53:55.809Z,99.99
2019-01-02T08:54:56.045Z,99.99
2019-01-02T08:57:00.220Z,99.99
2019-01-02T08:58:00.454Z,99.99
2019-01-02T09:00:04.601Z,99.99
2019-01-02T09:01:04.890Z,99.99
2019-01-02T09:03:09.006Z,99.99
2019-01-02T09:04:09.242Z,99.99
2019-01-02T09:06:13.407Z,99.99
2019-01-02T09:07:13.639Z,99.99
2019-01-02T09:09:17.785Z,99.99
2019-01-02T09:10:18.020Z,99.99
2019-01-02T09:12:22.189Z,99.99
2019-01-02T09:13:22.423Z,99.99
2019-01-02T09:15:15.498Z,99.99
2019-01-02T09:16:15.733Z,99.99
2019-01-02T09:18:19.899Z,99.99
2019-01-02T09:19:20.133Z,99.99
2019-01-02T09:21:24.301Z,99.99
2019-01-02T09:22:24.537Z,99.99
2019-01-02T09:24:28.682Z,99.99
2019-01-02T09:25:28.916Z,99.99
2019-01-02T09:27:33.091Z,98.02
2019-01-02T09:28:33.330Z,98.45
2019-01-02T09:30:37.480Z,97.22
2019-01-02T09:31:37.724Z,96.31
2019-01-02T09:33:41.898Z,96.65
2019-01-02T09:34:42.137Z,97.27
2019-01-02T09:36:46.313Z,99.26
2019-01-02T09:37:46.548Z,99.99
2019-01-02T09:39:50.701Z,99.99
2019-01-02T09:40:50.939Z,99.99
2019-01-02T09:42:55.114Z,99.99
2019-01-02T09:43:55.352Z,99.99
2019-01-02T09:45:59.507Z,99.99
2019-01-02T09:46:59.743Z,99.99
2019-01-02T09:49:03.926Z,99.99
2019-01-02T09:50:04.196Z,99.99
2019-01-02T09:52:08.336Z,99.99
2019-01-02T09:53:08.570Z,99.99
2019-01-02T09:55:01.952Z,99.99
2019-01-02T09:56:01.885Z,99.99
2019-01-02T09:58:06.057Z,99.99
2019-01-02T09:59:06.294Z,99.99
2019-01-02T10:01:10.443Z,99.99
2019-01-02T10:02:10.678Z,99.99
2019-01-02T10:04:14.851Z,99.99
2019-01-02T10:05:15.087Z,99.99
2019-01-02T10:07:19.257Z,99.99
2019-01-02T10:08:19.492Z,99.99
2019-01-02T10:10:23.640Z,99.99
2019-01-02T10:11:23.875Z,99.99
2019-01-02T10:13:28.050Z,97.74
2019-01-02T10:14:28.284Z,97.07
2019-01-02T10:16:32.429Z,90.99
2019-01-02T10:17:32.665Z,87.42
2019-01-02T10:19:36.840Z,85.53
2019-01-02T10:20:37.078Z,87.38
2019-01-02T10:22:41.266Z,88.71
2019-01-02T10:23:41.487Z,89.04
2019-01-02T10:25:34.572Z,87.57
2019-01-02T10:26:34.811Z,89.90
2019-01-02T10:28:38.984Z,94.13
2019-01-02T10:29:39.223Z,95.27
2019-01-02T10:31:43.375Z,97.36
2019-01-02T10:32:43.615Z,97.02
2019-01-02T10:34:47.794Z,94.79
2019-01-02T10:35:48.034Z,95.22
2019-01-02T10:37:52.211Z,97.12
2019-01-02T10:38:52.445Z,97.02
2019-01-02T10:40:56.597Z,87.53
2019-01-02T10:41:56.834Z,86.49
2019-01-02T10:44:01.008Z,85.39
2019-01-02T10:45:01.243Z,84.91
2019-01-02T10:47:05.400Z,86.30
2019-01-02T10:48:05.637Z,86.87
2019-01-02T10:50:09.817Z,87.45
2019-01-02T10:51:10.056Z,87.63
2019-01-02T10:53:14.225Z,89.72
2019-01-02T10:54:14.462Z,89.48
2019-01-02T10:56:18.616Z,87.96
2019-01-02T10:57:18.853Z,87.11
2019-01-02T10:59:23.024Z,87.39
2019-01-02T11:00:23.262Z,87.58
2019-01-02T11:02:27.445Z,87.82
2019-01-02T11:03:27.681Z,85.72
2019-01-02T11:05:20.765Z,76.23
2019-01-02T11:06:21.002Z,73.41
2019-01-02T11:08:25.177Z,70.70
2019-01-02T11:09:25.418Z,74.24
2019-01-02T11:11:29.575Z,79.60
2019-01-02T11:12:29.816Z,78.61
2019-01-02T11:14:33.987Z,77.94
2019-01-02T11:15:34.229Z,78.75
2019-01-02T11:17:38.413Z,78.95
2019-01-02T11:18:38.657Z,79.00
2019-01-02T11:20:42.811Z,75.62
2019-01-02T11:21:43.051Z,71.32
2019-01-02T11:23:47.228Z,68.42
2019-01-02T11:24:47.465Z,69.38
2019-01-02T11:26:52.888Z,64.65
2019-01-02T11:27:51.862Z,63.29
2019-01-02T11:29:56.041Z,58.94
2019-01-02T11:30:56.281Z,58.65
2019-01-02T11:33:00.445Z,59.89
2019-01-02T11:34:00.691Z,58.87
2019-01-02T11:36:04.874Z,64.43
2019-01-02T11:37:05.117Z,66.52
2019-01-02T11:39:09.306Z,68.67
2019-01-02T11:40:09.552Z,69.68
2019-01-02T11:42:13.710Z,69.40
2019-01-02T11:43:13.953Z,71.48
2019-01-02T11:45:07.063Z,70.45
2019-01-02T11:46:07.304Z,66.62
2019-01-02T11:48:11.466Z,66.20
2019-01-02T11:49:11.711Z,67.97
2019-01-02T11:51:15.894Z,68.29
2019-01-02T11:52:16.137Z,68.80
2019-01-02T11:54:20.322Z,66.53
2019-01-02T11:55:20.562Z,64.24
2019-01-02T11:57:24.723Z,58.65
2019-01-02T11:58:24.966Z,57.15
2019-01-02T12:00:29.149Z,56.60
2019-01-02T12:01:29.392Z,54.77
2019-01-02T12:03:33.577Z,53.91
2019-01-02T12:04:33.822Z,53.65
2019-01-02T12:06:38.004Z,52.40
2019-01-02T12:07:38.248Z,51.62
2019-01-02T12:09:42.484Z,53.55
2019-01-02T12:10:42.680Z,53.38
2019-01-02T12:12:46.842Z,56.97
2019-01-02T12:13:47.093Z,57.03
2019-01-02T12:15:40.211Z,53.96
2019-01-02T12:16:40.458Z,51.98
2019-01-02T12:18:44.644Z,50.21
2019-01-02T12:19:44.895Z,50.07
2019-01-02T12:21:49.086Z,53.47
2019-01-02T12:22:49.335Z,53.88
2019-01-02T12:24:53.528Z,51.67
2019-01-02T12:25:53.775Z,49.95
2019-01-02T12:27:58.211Z,47.99
2019-01-02T12:28:58.411Z,48.13
2019-01-02T12:31:02.687Z,47.89
2019-01-02T12:32:02.967Z,47.53
2019-01-02T12:34:07.167Z,46.20
2019-01-02T12:35:07.489Z,47.85
2019-01-02T12:37:11.908Z,49.85
2019-01-02T12:38:12.144Z,47.08
2019-01-02T12:40:16.476Z,45.89
2019-01-02T12:41:16.723Z,45.53
2019-01-02T12:43:20.897Z,45.28
2019-01-02T12:44:21.201Z,47.87
2019-01-02T12:46:25.396Z,51.59
2019-01-02T12:47:25.646Z,49.71
2019-01-02T12:49:29.820Z,46.51
2019-01-02T12:50:30.069Z,47.18
2019-01-02T12:52:34.259Z,46.82
2019-01-02T12:53:34.508Z,46.25
2019-01-02T12:55:27.632Z,44.77
2019-01-02T12:56:27.881Z,45.49
2019-01-02T12:58:32.056Z,51.35
2019-01-02T12:59:32.308Z,53.32
2019-01-02T13:01:36.503Z,55.36
2019-01-02T13:02:36.751Z,55.96
2019-01-02T13:04:40.922Z,55.35
2019-01-02T13:05:41.170Z,53.09
2019-01-02T13:07:45.355Z,50.31
2019-01-02T13:08:45.603Z,47.75
2019-01-02T13:10:49.791Z,46.58
2019-01-02T13:11:50.042Z,45.99
2019-01-02T13:13:54.210Z,47.30
2019-01-02T13:14:54.458Z,49.63
2019-01-02T13:16:58.662Z,53.43
2019-01-02T13:17:58.908Z,53.12
2019-01-02T13:20:03.077Z,55.30
2019-01-02T13:21:03.328Z,54.52
2019-01-02T13:23:07.623Z,57.97
2019-01-02T13:24:07.868Z,55.77
2019-01-02T13:26:12.053Z,50.97
2019-01-02T13:27:12.303Z,49.13
2019-01-02T13:29:16.470Z,47.73
2019-01-02T13:30:16.715Z,47.82
2019-01-02T13:32:20.904Z,46.80
2019-01-02T13:33:21.150Z,45.84
2019-01-02T13:35:14.240Z,46.15
2019-01-02T13:36:14.485Z,45.39
2019-01-02T13:38:18.673Z,43.96
2019-01-02T13:39:18.921Z,44.25
2019-01-02T13:41:23.124Z,44.06
2019-01-02T13:42:23.369Z,44.08
2019-01-02T13:44:27.540Z,43.22
2019-01-02T13:45:27.788Z,42.27
2019-01-02T13:47:31.986Z,43.11
2019-01-02T13:48:32.231Z,45.70
2019-01-02T13:50:36.407Z,45.35
2019-01-02T13:51:36.652Z,45.28
2019-01-02T13:53:40.845Z,48.25
2019-01-02T13:54:41.093Z,47.78
2019-01-02T13:56:45.341Z,51.34
2019-01-02T13:57:45.583Z,51.93
2019-01-02T13:59:49.899Z,51.39
2019-01-02T14:00:50.704Z,51.10
2019-01-02T14:02:54.181Z,51.10
2019-01-02T14:03:54.425Z,51.10
2019-01-02T14:05:58.597Z,51.01
2019-01-02T14:06:58.846Z,49.58
2019-01-02T14:09:03.041Z,50.89
2019-01-02T14:10:03.291Z,51.46
2019-01-02T14:12:07.476Z,51.08
2019-01-02T14:13:07.725Z,50.89
2019-01-02T14:15:00.822Z,51.46
2019-01-02T14:16:01.070Z,51.78
2019-01-02T14:18:05.264Z,50.92
2019-01-02T14:19:05.508Z,50.25
2019-01-02T14:21:09.677Z,51.91
2019-01-02T14:22:09.922Z,52.41
2019-01-02T14:24:14.112Z,52.10
2019-01-02T14:25:14.358Z,52.61
2019-01-02T14:27:18.547Z,52.93
2019-01-02T14:28:18.793Z,54.14
2019-01-02T14:30:22.962Z,58.36
2019-01-02T14:31:23.208Z,59.59
2019-01-02T14:33:27.393Z,61.58
2019-01-02T14:34:27.634Z,61.65
2019-01-02T14:36:31.796Z,61.71
2019-01-02T14:37:32.039Z,61.01
2019-01-02T14:39:36.222Z,61.87
2019-01-02T14:40:36.467Z,61.49
2019-01-02T14:42:40.774Z,61.23
2019-01-02T14:43:41.129Z,60.76
2019-01-02T14:45:34.278Z,59.33
2019-01-02T14:46:34.638Z,59.24
2019-01-02T14:48:38.950Z,59.97
2019-01-02T14:49:39.187Z,59.78
2019-01-02T14:51:43.419Z,62.43
2019-01-02T14:52:43.704Z,61.01
2019-01-02T14:54:48.024Z,61.65
2019-01-02T14:55:48.410Z,61.77
2019-01-02T14:57:52.670Z,61.49
2019-01-02T14:58:52.994Z,61.49
2019-01-02T15:00:57.173Z,61.77
2019-01-02T15:01:57.480Z,62.15
2019-01-02T15:04:01.756Z,63.60
2019-01-02T15:05:02.105Z,64.65
2019-01-02T15:07:06.350Z,65.50
2019-01-02T15:08:06.735Z,66.13
2019-01-02T15:10:11.925Z,66.83
2019-01-02T15:11:12.211Z,67.65
2019-01-02T15:13:16.443Z,67.83
2019-01-02T15:14:16.717Z,68.50
2019-01-02T15:16:20.880Z,69.32
2019-01-02T15:17:21.162Z,69.79
2019-01-02T15:19:25.531Z,70.64
2019-01-02T15:20:25.680Z,71.31
2019-01-02T15:22:29.840Z,71.97
2019-01-02T15:23:30.183Z,72.53
2019-01-02T15:25:23.432Z,73.26
2019-01-02T15:26:23.789Z,73.45
2019-01-02T15:28:28.046Z,74.58
2019-01-02T15:29:28.385Z,74.30
2019-01-02T15:31:32.608Z,75.43
2019-01-02T15:32:32.841Z,75.15
2019-01-02T15:34:37.014Z,75.24
2019-01-02T15:35:37.294Z,75.34
2019-01-02T15:37:41.447Z,75.81
2019-01-02T15:38:41.683Z,76.19
2019-01-02T15:40:45.856Z,76.10
2019-01-02T15:41:46.096Z,77.14
2019-01-02T15:43:50.268Z,76.86
2019-01-02T15:44:50.507Z,76.67
2019-01-02T15:46:54.657Z,77.89
2019-01-02T15:47:54.894Z,77.61
2019-01-02T15:49:59.066Z,76.67
2019-01-02T15:50:59.298Z,77.29
2019-01-02T15:53:03.445Z,77.01
2019-01-02T15:54:03.684Z,77.01
2019-01-02T15:56:07.851Z,77.67
2019-01-02T15:57:08.094Z,77.20
2019-01-02T15:59:12.260Z,77.10
2019-01-02T16:00:12.492Z,78.05
2019-01-02T16:02:16.639Z,77.95
2019-01-02T16:03:16.877Z,78.42
2019-01-02T16:05:09.977Z,77.76
2019-01-02T16:06:10.215Z,77.86
2019-01-02T16:08:14.375Z,78.52
2019-01-02T16:09:14.610Z,78.99
2019-01-02T16:11:18.781Z,78.71
2019-01-02T16:12:19.020Z,78.61
2019-01-02T16:14:23.187Z,78.90
2019-01-02T16:15:23.423Z,78.90
2019-01-02T16:17:27.568Z,77.95
2019-01-02T16:18:27.808Z,77.29
2019-01-02T16:20:31.973Z,76.15
2019-01-02T16:21:32.208Z,75.96
2019-01-02T16:23:36.349Z,76.15
2019-01-02T16:24:36.586Z,75.87
2019-01-02T16:26:40.754Z,75.59
2019-01-02T16:27:40.992Z,75.31
2019-01-02T16:29:45.375Z,75.21
2019-01-02T16:30:45.369Z,74.36
2019-01-02T16:32:49.520Z,74.17
2019-01-02T16:33:49.753Z,74.17
2019-01-02T16:35:42.844Z,74.26
2019-01-02T16:36:43.220Z,74.07
2019-01-02T16:38:47.379Z,74.26
2019-01-02T16:39:47.675Z,73.79
2019-01-02T16:41:51.838Z,73.50
2019-01-02T16:42:52.069Z,74.64
2019-01-02T16:44:56.248Z,75.21
2019-01-02T16:45:56.479Z,75.31
2019-01-02T16:48:00.707Z,74.83
2019-01-02T16:49:00.935Z,75.40
2019-01-02T16:51:05.198Z,74.64
2019-01-02T16:52:05.460Z,74.64
2019-01-02T16:54:09.694Z,74.55
2019-01-02T16:55:09.925Z,74.45
2019-01-02T16:57:14.211Z,75.02
2019-01-02T16:58:14.439Z,75.87
2019-01-02T17:00:18.759Z,76.15
2019-01-02T17:01:19.102Z,75.93
2019-01-02T17:03:23.243Z,75.87
2019-01-02T17:04:23.587Z,75.59
2019-01-02T17:06:27.770Z,75.31
2019-01-02T17:07:28.133Z,75.02
2019-01-02T17:09:32.317Z,75.87
2019-01-02T17:10:32.598Z,75.21
2019-01-02T17:12:37.915Z,74.93
2019-01-02T17:13:38.204Z,74.83
2019-01-02T17:15:32.503Z,74.36
2019-01-02T17:16:32.664Z,75.40
2019-01-02T17:18:36.851Z,75.78
2019-01-02T17:19:37.073Z,75.59
2019-01-02T17:21:41.251Z,75.87
2019-01-02T17:22:41.487Z,75.87
2019-01-02T17:24:45.627Z,75.78
2019-01-02T17:25:45.860Z,75.31
2019-01-02T17:27:50.027Z,75.31
2019-01-02T17:28:50.258Z,75.02
2019-01-02T17:30:54.420Z,75.96
2019-01-02T17:31:54.651Z,77.20
2019-01-02T17:33:58.798Z,76.34
2019-01-02T17:34:59.029Z,76.34
2019-01-02T17:37:03.950Z,77.10
2019-01-02T17:38:03.429Z,76.72
2019-01-02T17:40:07.569Z,77.67
2019-01-02T17:41:07.804Z,77.20
2019-01-02T17:43:11.964Z,76.82
2019-01-02T17:44:12.197Z,76.15
2019-01-02T17:46:16.359Z,76.63
2019-01-02T17:47:16.593Z,77.58
2019-01-02T17:49:20.733Z,77.01
2019-01-02T17:50:20.965Z,77.76
2019-01-02T17:52:25.131Z,78.61
2019-01-02T17:53:25.362Z,78.52
2019-01-02T17:55:18.434Z,78.42
2019-01-02T17:56:18.667Z,78.71
2019-01-02T17:58:22.829Z,78.71
2019-01-02T17:59:23.062Z,78.05
2019-01-02T18:01:27.259Z,77.76
2019-01-02T18:02:27.493Z,78.14
2019-01-02T18:04:31.632Z,77.76
2019-01-02T18:05:31.867Z,78.05
2019-01-02T18:07:36.036Z,77.86
2019-01-02T18:08:36.269Z,78.14
2019-01-02T18:10:40.412Z,77.86
2019-01-02T18:11:40.651Z,77.76
2019-01-02T18:13:44.814Z,78.61
2019-01-02T18:14:45.045Z,78.52
2019-01-02T18:16:49.183Z,78.90
2019-01-02T18:17:49.419Z,79.66
2019-01-02T18:19:53.580Z,79.66
2019-01-02T18:20:53.812Z,78.90
2019-01-02T18:22:57.978Z,78.61
2019-01-02T18:23:58.214Z,79.28
2019-01-02T18:26:02.351Z,79.37
2019-01-02T18:27:02.585Z,79.28
2019-01-02T18:29:06.747Z,79.75
2019-01-02T18:30:06.980Z,78.90
2019-01-02T18:32:11.147Z,79.75
2019-01-02T18:33:11.388Z,80.32
2019-01-02T18:35:04.452Z,80.22
2019-01-02T18:36:04.684Z,80.04
2019-01-02T18:38:09.344Z,80.41
2019-01-02T18:39:09.574Z,80.32
2019-01-02T18:41:13.720Z,79.47
2019-01-02T18:42:13.953Z,79.28
2019-01-02T18:44:20.545Z,80.51
2019-01-02T18:45:18.844Z,80.60
2019-01-02T18:47:23.003Z,80.13
2019-01-02T18:48:23.236Z,80.32
2019-01-02T18:50:27.385Z,79.85
2019-01-02T18:51:27.618Z,80.32
2019-01-02T18:53:31.780Z,80.79
2019-01-02T18:54:32.013Z,80.51
2019-01-02T18:56:36.154Z,80.88
2019-01-02T18:57:36.383Z,80.41
2019-01-02T18:59:40.546Z,80.88
2019-01-02T19:00:40.781Z,80.51
2019-01-02T19:02:44.951Z,80.60
2019-01-02T19:03:45.185Z,80.98
2019-01-02T19:05:38.254Z,80.60
2019-01-02T19:06:38.490Z,80.41
2019-01-02T19:08:42.653Z,81.74
2019-01-02T19:09:42.888Z,81.26
2019-01-02T19:11:47.036Z,81.55
2019-01-02T19:12:47.269Z,81.36
2019-01-02T19:14:51.431Z,81.74
2019-01-02T19:15:51.665Z,81.64
2019-01-02T19:17:55.839Z,82.02
2019-01-02T19:18:56.059Z,82.26
2019-01-02T19:21:00.206Z,82.21
2019-01-02T19:22:00.438Z,82.12
2019-01-02T19:24:04.765Z,82.50
2019-01-02T19:25:05.013Z,83.25
2019-01-02T19:27:09.224Z,83.06
2019-01-02T19:28:09.436Z,83.25
2019-01-02T19:30:13.594Z,83.30
2019-01-02T19:31:13.828Z,83.59
2019-01-02T19:33:18.161Z,83.78
2019-01-02T19:34:18.392Z,84.06
2019-01-02T19:36:22.564Z,85.10
2019-01-02T19:37:22.927Z,85.38
2019-01-02T19:39:27.215Z,85.19
2019-01-02T19:40:27.441Z,85.19
2019-01-02T19:42:31.649Z,85.10